37 Max
17 km/h
6 Mini

LFMY 260330Z AUTO 00000KT CAVOK 14/10 Q1010

TAF LFMY 251922Z 2519/2615 CNL